createdAt,value
2022-10-30T00:01:32.999Z,3.87
2022-10-30T00:04:01.185Z,3.73
2022-10-30T00:06:30.696Z,3.60
2022-10-30T00:08:58.890Z,3.67
2022-10-30T00:11:27.079Z,3.60
2022-10-30T00:13:55.254Z,3.80
2022-10-30T00:16:23.441Z,4.17
2022-10-30T00:18:51.598Z,3.93
2022-10-30T00:21:20.660Z,3.50
2022-10-30T00:23:50.636Z,4.10
2022-10-30T00:26:19.118Z,3.27
2022-10-30T00:28:50.813Z,3.30
2022-10-30T00:31:19.050Z,3.60
2022-10-30T00:33:50.402Z,3.63
2022-10-30T00:36:18.627Z,3.30
2022-10-30T00:38:46.823Z,3.70
2022-10-30T00:41:17.565Z,3.27
2022-10-30T00:43:45.803Z,3.40
2022-10-30T00:46:18.126Z,3.40
2022-10-30T00:48:47.718Z,3.97
2022-10-30T00:51:16.459Z,3.80
2022-10-30T00:53:44.866Z,3.67
2022-10-30T00:56:13.573Z,3.80
2022-10-30T00:58:46.729Z,3.77
2022-10-30T01:01:17.947Z,3.53
2022-10-30T01:03:46.427Z,3.20
2022-10-30T01:06:17.548Z,3.73
2022-10-30T01:08:46.288Z,3.70
2022-10-30T01:11:14.629Z,4.23
2022-10-30T01:13:44.851Z,3.70
2022-10-30T01:16:21.787Z,3.47
2022-10-30T01:18:51.517Z,3.43
2022-10-30T01:21:33.399Z,3.63
2022-10-30T01:24:07.015Z,3.57
2022-10-30T01:26:40.335Z,3.40
2022-10-30T01:29:14.358Z,4.27
2022-10-30T01:31:45.958Z,3.83
2022-10-30T01:34:20.381Z,3.60
2022-10-30T01:36:51.467Z,4.33
2022-10-30T01:39:21.578Z,3.77
2022-10-30T01:41:49.793Z,4.17
2022-10-30T01:44:20.675Z,3.87
2022-10-30T01:46:56.481Z,3.67
2022-10-30T01:49:31.302Z,3.80
2022-10-30T01:52:02.739Z,3.73
2022-10-30T01:54:35.027Z,3.93
2022-10-30T01:57:06.426Z,3.57
2022-10-30T01:59:38.866Z,4.43
2022-10-30T02:02:07.248Z,4.40
2022-10-30T02:04:36.153Z,4.63
2022-10-30T02:07:04.689Z,3.80
2022-10-30T02:09:33.297Z,4.03
2022-10-30T02:12:02.025Z,3.83
2022-10-30T02:14:31.694Z,4.40
2022-10-30T02:17:02.448Z,4.20
2022-10-30T02:19:30.592Z,3.90
2022-10-30T02:22:00.226Z,4.07
2022-10-30T02:24:28.579Z,3.77
2022-10-30T02:26:56.749Z,3.50
2022-10-30T02:29:25.044Z,4.43
2022-10-30T02:31:53.234Z,3.90
2022-10-30T02:34:21.407Z,4.30
2022-10-30T02:36:49.558Z,4.03
2022-10-30T02:39:20.103Z,4.13
2022-10-30T02:41:48.509Z,4.13
2022-10-30T02:44:16.709Z,4.03
2022-10-30T02:46:44.860Z,4.27
2022-10-30T02:49:13.069Z,3.50
2022-10-30T02:51:41.259Z,3.93
2022-10-30T02:54:09.443Z,3.53
2022-10-30T02:56:39.086Z,4.00
2022-10-30T02:59:07.326Z,3.60
2022-10-30T03:01:35.554Z,3.77
2022-10-30T03:04:03.749Z,4.43
2022-10-30T03:06:31.894Z,4.33
2022-10-30T03:09:00.169Z,4.00
2022-10-30T03:11:28.587Z,3.93
2022-10-30T03:13:58.113Z,4.17
2022-10-30T03:16:29.310Z,4.20
2022-10-30T03:18:57.662Z,4.43
2022-10-30T03:21:26.601Z,4.50
2022-10-30T03:23:55.317Z,4.00
2022-10-30T03:26:23.754Z,3.90
2022-10-30T03:28:52.112Z,4.37
2022-10-30T03:31:21.834Z,3.70
2022-10-30T03:33:50.021Z,4.50
2022-10-30T03:36:18.235Z,5.03
2022-10-30T03:38:46.378Z,3.97
2022-10-30T03:41:14.501Z,4.00
2022-10-30T03:43:42.680Z,4.67
2022-10-30T03:46:11.418Z,3.80
2022-10-30T03:48:41.002Z,3.93
2022-10-30T03:51:09.183Z,4.20
2022-10-30T03:53:37.359Z,3.90
2022-10-30T03:56:06.097Z,4.20
2022-10-30T03:58:34.284Z,4.10
2022-10-30T04:01:02.996Z,4.17
2022-10-30T04:03:31.349Z,3.90
2022-10-30T04:06:01.003Z,4.00
2022-10-30T04:08:29.163Z,3.90
2022-10-30T04:10:57.432Z,4.63
2022-10-30T04:13:25.690Z,4.63
2022-10-30T04:15:57.664Z,4.63
2022-10-30T04:18:26.663Z,4.20
2022-10-30T04:20:54.865Z,4.43
2022-10-30T04:23:24.482Z,3.90
2022-10-30T04:25:52.652Z,4.63
2022-10-30T04:28:21.233Z,3.80
2022-10-30T04:30:49.609Z,4.37
2022-10-30T04:33:17.890Z,4.47
2022-10-30T04:35:46.135Z,3.80
2022-10-30T04:38:15.050Z,4.27
2022-10-30T04:40:45.064Z,5.13
2022-10-30T04:43:13.960Z,4.10
2022-10-30T04:45:42.601Z,4.30
2022-10-30T04:48:12.652Z,4.13
2022-10-30T04:50:40.887Z,4.13
2022-10-30T04:53:10.214Z,4.03
2022-10-30T04:55:38.548Z,4.77
2022-10-30T04:58:09.324Z,4.27
2022-10-30T05:00:37.984Z,4.10
2022-10-30T05:03:06.157Z,4.10
2022-10-30T05:05:34.618Z,3.60
2022-10-30T05:08:03.113Z,4.03
2022-10-30T05:10:31.417Z,3.83
2022-10-30T05:13:00.105Z,4.03
2022-10-30T05:15:29.707Z,4.33
2022-10-30T05:17:58.113Z,4.57
2022-10-30T05:20:26.497Z,4.23
2022-10-30T05:22:58.109Z,4.40
2022-10-30T05:25:26.727Z,4.00
2022-10-30T05:27:59.305Z,4.37
2022-10-30T05:30:28.239Z,4.00
2022-10-30T05:33:01.315Z,4.33
2022-10-30T05:35:29.995Z,4.00
2022-10-30T05:37:58.322Z,4.07
2022-10-30T05:40:26.647Z,4.43
2022-10-30T05:42:54.976Z,4.20
2022-10-30T05:45:23.433Z,4.47
2022-10-30T05:47:56.787Z,4.37
2022-10-30T05:50:26.854Z,3.90
2022-10-30T05:52:56.707Z,4.30
2022-10-30T05:55:24.890Z,4.77
2022-10-30T05:57:57.204Z,4.10
2022-10-30T06:00:25.816Z,4.50
2022-10-30T06:02:54.120Z,4.63
2022-10-30T06:05:22.332Z,4.60
2022-10-30T06:07:51.839Z,4.90
2022-10-30T06:10:19.986Z,4.77
2022-10-30T06:12:53.771Z,4.60
2022-10-30T06:15:21.983Z,4.20
2022-10-30T06:17:50.191Z,4.60
2022-10-30T06:20:19.126Z,4.50
2022-10-30T06:22:56.378Z,4.57
2022-10-30T06:25:24.549Z,4.43
2022-10-30T06:27:52.934Z,4.67
2022-10-30T06:30:21.469Z,4.83
2022-10-30T06:32:49.812Z,4.70
2022-10-30T06:35:18.020Z,4.60
2022-10-30T06:37:49.667Z,5.13
2022-10-30T06:40:19.880Z,4.40
2022-10-30T06:42:48.514Z,4.57
2022-10-30T06:45:17.444Z,4.83
2022-10-30T06:47:45.801Z,4.27
2022-10-30T06:50:15.732Z,4.03
2022-10-30T06:52:43.973Z,4.10
2022-10-30T06:55:12.691Z,4.93
2022-10-30T06:57:42.972Z,4.83
2022-10-30T07:00:11.785Z,4.63
2022-10-30T07:02:39.971Z,4.10
2022-10-30T07:05:08.352Z,4.00
2022-10-30T07:07:36.557Z,4.20
2022-10-30T07:10:04.845Z,4.37
2022-10-30T07:12:33.004Z,4.57
2022-10-30T07:15:02.511Z,4.30
2022-10-30T07:17:30.746Z,4.50
2022-10-30T07:19:58.947Z,4.40
2022-10-30T07:22:27.114Z,4.40
2022-10-30T07:24:55.267Z,4.40
2022-10-30T07:27:23.478Z,4.63
2022-10-30T07:29:51.707Z,4.60
2022-10-30T07:32:21.417Z,4.90
2022-10-30T07:34:49.603Z,4.43
2022-10-30T07:37:17.751Z,4.67
2022-10-30T07:39:45.921Z,4.30
2022-10-30T07:42:14.086Z,4.20
2022-10-30T07:44:42.271Z,3.83
2022-10-30T07:47:10.475Z,4.23
2022-10-30T07:49:39.990Z,3.90
2022-10-30T07:52:11.770Z,4.03
2022-10-30T07:54:42.581Z,3.80
2022-10-30T07:57:10.792Z,4.20
2022-10-30T07:59:39.031Z,3.43
2022-10-30T08:02:07.687Z,3.53
2022-10-30T08:04:36.025Z,3.60
2022-10-30T08:07:05.533Z,4.07
2022-10-30T08:09:33.767Z,4.27
2022-10-30T08:12:01.919Z,4.20
2022-10-30T08:14:30.035Z,4.43
2022-10-30T08:16:58.478Z,3.83
2022-10-30T08:19:26.618Z,4.00
2022-10-30T08:21:59.147Z,3.43
2022-10-30T08:24:29.650Z,3.67
2022-10-30T08:26:57.828Z,3.40
2022-10-30T08:29:29.789Z,3.37
2022-10-30T08:31:58.014Z,4.53
2022-10-30T08:34:27.567Z,3.87
2022-10-30T08:36:55.753Z,3.43
2022-10-30T08:39:23.912Z,3.50
2022-10-30T08:41:53.477Z,4.30
2022-10-30T08:44:21.727Z,3.77
2022-10-30T08:46:49.970Z,4.17
2022-10-30T08:49:18.182Z,3.53
2022-10-30T08:51:46.318Z,3.40
2022-10-30T08:54:14.638Z,3.53
2022-10-30T08:56:42.807Z,3.60
2022-10-30T08:59:15.703Z,3.87
2022-10-30T09:01:47.685Z,3.57
2022-10-30T09:04:15.900Z,2.83
2022-10-30T09:06:44.095Z,3.57
2022-10-30T09:09:13.296Z,3.43
2022-10-30T09:11:41.579Z,2.93
2022-10-30T09:14:09.767Z,3.33
2022-10-30T09:16:39.260Z,3.70
2022-10-30T09:19:07.443Z,3.13
2022-10-30T09:21:35.592Z,3.50
2022-10-30T09:24:03.791Z,3.33
2022-10-30T09:26:32.001Z,3.83
2022-10-30T09:29:00.231Z,3.30
2022-10-30T09:31:28.411Z,3.43
2022-10-30T09:33:57.933Z,3.70
2022-10-30T09:36:26.118Z,3.67
2022-10-30T09:38:55.457Z,3.63
2022-10-30T09:41:32.830Z,3.37
2022-10-30T09:44:09.033Z,2.80
2022-10-30T09:46:44.792Z,3.80
2022-10-30T09:49:20.390Z,3.83
2022-10-30T09:51:56.554Z,3.87
2022-10-30T09:54:30.148Z,3.40
2022-10-30T09:57:02.404Z,3.43
2022-10-30T09:59:36.280Z,3.57
2022-10-30T10:02:12.247Z,3.63
2022-10-30T10:04:43.348Z,3.63
2022-10-30T10:07:16.763Z,3.47
2022-10-30T10:09:45.448Z,3.90
2022-10-30T10:12:15.690Z,3.73
2022-10-30T10:14:45.763Z,3.83
2022-10-30T10:17:17.003Z,3.40
2022-10-30T10:19:50.243Z,4.10
2022-10-30T10:22:22.219Z,3.60
2022-10-30T10:24:50.447Z,3.60
2022-10-30T10:27:24.986Z,3.10
2022-10-30T10:29:57.443Z,3.70
2022-10-30T10:32:46.630Z,3.63
2022-10-30T10:35:37.772Z,3.70
2022-10-30T10:38:11.069Z,3.20
2022-10-30T10:40:46.054Z,4.13
2022-10-30T10:43:21.167Z,3.83
2022-10-30T10:45:51.462Z,3.47
2022-10-30T10:48:28.800Z,3.53
2022-10-30T10:51:00.326Z,3.47
2022-10-30T10:53:31.218Z,3.47
2022-10-30T10:56:01.602Z,3.40
2022-10-30T10:58:32.287Z,3.60
2022-10-30T11:01:01.264Z,3.27
2022-10-30T11:03:34.295Z,3.57
2022-10-30T11:06:06.924Z,3.50
2022-10-30T11:08:35.371Z,4.07
2022-10-30T11:11:05.224Z,3.63
2022-10-30T11:13:37.047Z,3.57
2022-10-30T11:16:16.950Z,3.30
2022-10-30T11:18:46.654Z,3.50
2022-10-30T11:21:20.555Z,3.43
2022-10-30T11:23:49.781Z,3.17
2022-10-30T11:26:33.082Z,3.73
2022-10-30T11:29:05.625Z,3.30
2022-10-30T11:31:37.706Z,3.80
2022-10-30T11:34:22.051Z,3.70
2022-10-30T11:36:52.328Z,4.10
2022-10-30T11:39:22.267Z,3.47
2022-10-30T11:41:57.856Z,3.53
2022-10-30T11:44:29.796Z,3.00
2022-10-30T11:46:58.365Z,3.07
2022-10-30T11:49:37.779Z,3.10
2022-10-30T11:52:09.269Z,2.90
2022-10-30T11:54:40.738Z,3.30
2022-10-30T11:57:23.316Z,3.17
2022-10-30T11:59:52.682Z,3.47
2022-10-30T12:02:22.838Z,3.60
2022-10-30T12:04:52.578Z,3.10
2022-10-30T12:07:27.207Z,3.27
2022-10-30T12:09:55.388Z,3.47
2022-10-30T12:12:26.732Z,3.40
2022-10-30T12:14:55.225Z,3.47
2022-10-30T12:17:23.557Z,3.23
2022-10-30T12:19:53.820Z,3.50
2022-10-30T12:22:34.559Z,3.40
2022-10-30T12:25:05.622Z,3.50
2022-10-30T12:27:37.932Z,3.17
2022-10-30T12:30:10.281Z,3.17
2022-10-30T12:32:47.369Z,2.60
2022-10-30T12:35:37.548Z,2.80
2022-10-30T12:38:11.634Z,2.80
2022-10-30T12:40:45.047Z,3.77
2022-10-30T12:43:18.338Z,3.13
2022-10-30T12:45:48.841Z,3.00
2022-10-30T12:48:23.690Z,2.87
2022-10-30T12:51:15.979Z,2.83
2022-10-30T12:53:52.122Z,2.73
2022-10-30T12:56:27.814Z,2.83
2022-10-30T12:59:04.231Z,2.80
2022-10-30T13:01:36.832Z,2.83
2022-10-30T13:04:11.058Z,3.17
2022-10-30T13:06:46.189Z,2.77
2022-10-30T13:09:20.310Z,3.07
2022-10-30T13:11:54.032Z,2.93
2022-10-30T13:14:22.906Z,2.90
2022-10-30T13:16:52.584Z,2.93
2022-10-30T13:19:20.467Z,2.80
2022-10-30T13:21:55.080Z,2.57
2022-10-30T13:24:31.800Z,2.67
2022-10-30T13:27:06.161Z,2.80
2022-10-30T13:29:42.863Z,3.00
2022-10-30T13:32:29.833Z,2.90
2022-10-30T13:35:09.262Z,2.90
2022-10-30T13:37:42.974Z,2.63
2022-10-30T13:40:19.993Z,2.83
2022-10-30T13:42:57.894Z,2.53
2022-10-30T13:45:38.859Z,3.27
2022-10-30T13:48:17.734Z,3.00
2022-10-30T13:51:05.516Z,2.63
2022-10-30T13:53:38.546Z,2.80
2022-10-30T13:56:13.253Z,2.57
2022-10-30T13:58:46.383Z,2.60
2022-10-30T14:01:20.418Z,2.70
2022-10-30T14:04:00.251Z,2.80
2022-10-30T14:06:39.615Z,2.57
2022-10-30T14:09:16.489Z,3.10
2022-10-30T14:11:45.804Z,2.90
2022-10-30T14:14:30.148Z,2.37
2022-10-30T14:17:13.931Z,2.60
2022-10-30T14:20:15.116Z,2.90
2022-10-30T14:22:43.058Z,2.87
2022-10-30T14:25:15.974Z,2.40
2022-10-30T14:27:56.631Z,3.27
2022-10-30T14:30:28.434Z,2.73
2022-10-30T14:32:56.687Z,2.70
2022-10-30T14:35:33.624Z,2.57
2022-10-30T14:38:34.814Z,2.97
2022-10-30T14:41:09.718Z,2.40
2022-10-30T14:43:46.425Z,2.40
2022-10-30T14:46:19.374Z,3.10
2022-10-30T14:48:50.376Z,2.40
2022-10-30T14:51:20.907Z,2.70
2022-10-30T14:53:59.661Z,2.60
2022-10-30T14:56:33.082Z,3.07
2022-10-30T14:59:23.205Z,3.10
2022-10-30T15:02:00.577Z,2.83
2022-10-30T15:04:39.836Z,2.80
2022-10-30T15:07:10.643Z,3.13
2022-10-30T15:09:42.568Z,2.50
2022-10-30T15:12:37.856Z,3.20
2022-10-30T15:15:12.517Z,2.93
2022-10-30T15:17:42.173Z,2.90
2022-10-30T15:20:16.007Z,2.43
2022-10-30T15:22:44.334Z,3.33
2022-10-30T15:25:17.599Z,2.80
2022-10-30T15:27:46.932Z,2.97
2022-10-30T15:30:18.937Z,3.07
2022-10-30T15:32:47.159Z,2.63
2022-10-30T15:35:16.588Z,3.00
2022-10-30T15:37:58.208Z,2.80
2022-10-30T15:40:26.699Z,3.13
2022-10-30T15:42:55.672Z,2.97
2022-10-30T15:45:25.728Z,2.73
2022-10-30T15:47:59.285Z,3.00
2022-10-30T15:50:27.839Z,3.27
2022-10-30T15:52:56.315Z,3.70
2022-10-30T15:55:29.047Z,2.70
2022-10-30T15:58:03.907Z,2.87
2022-10-30T16:00:36.202Z,3.27
2022-10-30T16:03:05.524Z,3.30
2022-10-30T16:05:35.435Z,3.87
2022-10-30T16:08:05.238Z,3.60
2022-10-30T16:10:35.251Z,3.43
2022-10-30T16:13:04.107Z,3.17
2022-10-30T16:15:35.479Z,3.20
2022-10-30T16:18:06.467Z,3.47
2022-10-30T16:20:35.196Z,3.97
2022-10-30T16:23:04.113Z,3.60
2022-10-30T16:25:34.062Z,3.70
2022-10-30T16:28:02.575Z,3.63
2022-10-30T16:30:32.023Z,3.10
2022-10-30T16:33:02.486Z,3.27
2022-10-30T16:35:30.895Z,3.47
2022-10-30T16:38:02.526Z,3.33
2022-10-30T16:40:31.273Z,3.57
2022-10-30T16:43:00.900Z,3.33
2022-10-30T16:45:47.122Z,3.37
2022-10-30T16:48:18.953Z,3.60
2022-10-30T16:50:47.371Z,3.67
2022-10-30T16:53:18.560Z,3.83
2022-10-30T16:55:46.871Z,3.63
2022-10-30T16:58:15.688Z,3.60
2022-10-30T17:00:49.737Z,3.30
2022-10-30T17:03:23.752Z,3.37
2022-10-30T17:05:58.991Z,4.07
2022-10-30T17:08:29.316Z,3.17
2022-10-30T17:10:59.804Z,3.87
2022-10-30T17:13:31.945Z,3.40
2022-10-30T17:16:00.827Z,3.87
2022-10-30T17:18:33.552Z,3.77
2022-10-30T17:21:06.111Z,3.20
2022-10-30T17:23:34.330Z,3.57
2022-10-30T17:26:09.055Z,2.80
2022-10-30T17:28:37.716Z,3.73
2022-10-30T17:31:21.299Z,3.30
2022-10-30T17:34:05.256Z,2.77
2022-10-30T17:36:33.409Z,3.30
2022-10-30T17:39:01.559Z,3.40
2022-10-30T17:41:29.936Z,3.50
2022-10-30T17:43:58.361Z,3.23
2022-10-30T17:46:26.707Z,3.30
2022-10-30T17:48:56.189Z,3.83
2022-10-30T17:51:24.397Z,3.23
2022-10-30T17:53:52.706Z,3.20
2022-10-30T17:56:21.878Z,3.73
2022-10-30T17:58:50.031Z,3.37
2022-10-30T18:01:19.010Z,3.53
2022-10-30T18:03:47.314Z,3.10
2022-10-30T18:06:18.710Z,3.33
2022-10-30T18:08:50.567Z,3.80
2022-10-30T18:11:20.786Z,3.53
2022-10-30T18:13:49.200Z,3.93
2022-10-30T18:16:18.270Z,3.97
2022-10-30T18:18:46.785Z,3.80
2022-10-30T18:21:15.416Z,3.90
2022-10-30T18:23:53.369Z,3.67
2022-10-30T18:26:23.178Z,3.73
2022-10-30T18:28:51.445Z,3.40
2022-10-30T18:31:20.606Z,3.23
2022-10-30T18:33:49.300Z,4.57
2022-10-30T18:36:18.230Z,3.97
2022-10-30T18:38:47.834Z,3.80
2022-10-30T18:41:16.804Z,3.40
2022-10-30T18:43:46.957Z,4.20
2022-10-30T18:46:15.966Z,3.90
2022-10-30T18:48:44.363Z,3.80
2022-10-30T18:51:16.360Z,4.07
2022-10-30T18:53:51.022Z,3.60
2022-10-30T18:56:21.102Z,4.17
2022-10-30T18:58:49.425Z,4.20
2022-10-30T19:01:18.344Z,3.57
2022-10-30T19:03:47.020Z,3.70
2022-10-30T19:06:16.318Z,3.63
2022-10-30T19:08:44.475Z,3.63
2022-10-30T19:11:13.803Z,3.97
2022-10-30T19:13:43.367Z,3.40
2022-10-30T19:16:12.590Z,3.80
2022-10-30T19:18:40.785Z,3.97
2022-10-30T19:21:14.512Z,4.60
2022-10-30T19:23:44.138Z,3.57
2022-10-30T19:26:13.674Z,4.13
2022-10-30T19:28:43.561Z,4.03
2022-10-30T19:31:14.602Z,3.80
2022-10-30T19:33:43.297Z,4.33
2022-10-30T19:36:25.904Z,4.03
2022-10-30T19:38:54.122Z,4.10
2022-10-30T19:41:24.666Z,4.07
2022-10-30T19:43:55.195Z,3.73
2022-10-30T19:46:23.362Z,4.43
2022-10-30T19:48:59.921Z,4.07
2022-10-30T19:51:28.706Z,4.10
2022-10-30T19:53:57.170Z,4.23
2022-10-30T19:56:25.634Z,3.97
2022-10-30T19:58:55.372Z,4.73
2022-10-30T20:01:23.700Z,4.40
2022-10-30T20:03:51.911Z,4.70
2022-10-30T20:06:21.513Z,4.40
2022-10-30T20:08:49.697Z,4.27
2022-10-30T20:11:18.094Z,4.80
2022-10-30T20:13:48.116Z,4.40
2022-10-30T20:16:18.873Z,4.87
2022-10-30T20:18:47.330Z,4.40
2022-10-30T20:21:15.546Z,5.47
2022-10-30T20:23:43.804Z,4.47
2022-10-30T20:26:18.456Z,5.37
2022-10-30T20:28:47.102Z,4.93
2022-10-30T20:31:15.316Z,4.73
2022-10-30T20:33:44.895Z,4.50
2022-10-30T20:36:14.191Z,5.17
2022-10-30T20:38:42.431Z,4.77
2022-10-30T20:41:20.959Z,4.60
2022-10-30T20:43:50.127Z,5.20
2022-10-30T20:46:18.855Z,4.67
2022-10-30T20:48:48.501Z,4.90
2022-10-30T20:51:16.776Z,5.10
2022-10-30T20:53:45.090Z,4.57
2022-10-30T20:56:13.283Z,4.50
2022-10-30T20:58:41.741Z,5.17
2022-10-30T21:01:10.811Z,5.07
2022-10-30T21:03:39.357Z,5.20
2022-10-30T21:06:09.785Z,4.90
2022-10-30T21:08:38.559Z,5.20
2022-10-30T21:11:08.116Z,5.20
2022-10-30T21:13:36.770Z,5.07
2022-10-30T21:16:06.222Z,4.67
2022-10-30T21:18:34.404Z,4.87
2022-10-30T21:21:02.614Z,5.20
2022-10-30T21:23:32.132Z,5.43
2022-10-30T21:26:00.722Z,5.00
2022-10-30T21:28:28.901Z,5.03
2022-10-30T21:30:57.094Z,5.10
2022-10-30T21:33:25.272Z,5.00
2022-10-30T21:35:53.409Z,4.83
2022-10-30T21:38:21.570Z,5.40
2022-10-30T21:40:57.108Z,5.17
2022-10-30T21:43:25.389Z,5.70
2022-10-30T21:45:53.635Z,5.20
2022-10-30T21:48:21.993Z,4.97
2022-10-30T21:50:50.351Z,5.60
2022-10-30T21:53:18.572Z,5.07
2022-10-30T21:55:46.765Z,5.27
2022-10-30T21:58:16.251Z,5.20
2022-10-30T22:00:44.422Z,5.33
2022-10-30T22:03:12.763Z,5.40
2022-10-30T22:05:40.905Z,4.50
2022-10-30T22:08:09.125Z,5.23
2022-10-30T22:10:37.339Z,5.17
2022-10-30T22:13:05.560Z,5.80
2022-10-30T22:15:35.105Z,5.53
2022-10-30T22:18:03.307Z,5.70
2022-10-30T22:20:31.464Z,5.00
2022-10-30T22:22:59.605Z,4.87
2022-10-30T22:25:27.803Z,5.23
2022-10-30T22:27:56.070Z,5.13
2022-10-30T22:30:24.303Z,5.23
2022-10-30T22:32:54.418Z,5.70
2022-10-30T22:35:22.642Z,4.67
2022-10-30T22:37:50.802Z,4.53
2022-10-30T22:40:18.999Z,4.83
2022-10-30T22:42:47.202Z,4.70
2022-10-30T22:45:15.406Z,4.73
2022-10-30T22:47:43.589Z,4.77
2022-10-30T22:50:13.096Z,5.10
2022-10-30T22:52:41.257Z,5.37
2022-10-30T22:55:09.924Z,5.27
2022-10-30T22:57:38.150Z,4.90
2022-10-30T23:00:07.086Z,5.17
2022-10-30T23:02:35.636Z,4.83
2022-10-30T23:05:03.852Z,5.30
2022-10-30T23:07:33.391Z,5.40
2022-10-30T23:10:01.523Z,4.63
2022-10-30T23:12:29.747Z,4.70
2022-10-30T23:14:57.928Z,4.80
2022-10-30T23:17:26.227Z,5.27
2022-10-30T23:19:54.365Z,5.40
2022-10-30T23:22:22.471Z,5.10
2022-10-30T23:24:51.960Z,4.90
2022-10-30T23:27:20.168Z,4.97
2022-10-30T23:29:48.986Z,6.00
2022-10-30T23:32:17.142Z,5.03
2022-10-30T23:34:45.359Z,5.60
2022-10-30T23:37:13.593Z,5.73
2022-10-30T23:39:41.758Z,5.43
2022-10-30T23:42:11.343Z,5.13
2022-10-30T23:44:39.556Z,5.30
2022-10-30T23:47:07.750Z,5.53
2022-10-30T23:49:35.948Z,5.50
2022-10-30T23:52:04.110Z,5.70
2022-10-30T23:54:32.293Z,5.23
2022-10-30T23:57:00.484Z,5.50
2022-10-30T23:59:30.059Z,5.40
